Terminal Aerodrome Forecast
Issued by NWS Medford, OR

Home | Current Version | Previous Version | Text Only | Print | Product List | Glossary On
Versions: 1 2 3 4 5 6 7 8 9 10 11 12 13 14 15 16
147
FTUS46 KMFR 081740
TAFMFR
TAF
KMFR 081740Z 0818/0918 VRB03KT P6SM SKC WS015/13030KT
     FM082000 15008KT P6SM SKC=

USA.gov is the U.S. government's official web portal to all federal, state and local government web resources and services.